createdAt,value
2023-05-14T03:25:01.224Z,2241.2
2023-05-14T03:26:00.904Z,2402.5
2023-05-14T03:27:00.934Z,2583.2
2023-05-14T03:28:00.916Z,2763.9
2023-05-14T03:29:00.901Z,2944.7
2023-05-14T03:32:00.924Z,3532.5
2023-05-14T03:33:00.959Z,3733.7
2023-05-14T03:34:00.907Z,3935.0
2023-05-14T03:35:01.125Z,4155.1
2023-05-14T03:36:00.902Z,4375.1
2023-05-14T03:37:00.928Z,4606.0
2023-05-14T03:38:00.919Z,4836.9
2023-05-14T03:39:00.911Z,5067.7
2023-05-14T03:41:00.943Z,5535.2
2023-05-14T03:42:00.936Z,5765.9
2023-05-14T03:43:00.904Z,5996.7
2023-05-14T03:44:00.912Z,6227.4
2023-05-14T03:47:00.950Z,6973.3
2023-05-14T03:48:00.968Z,7240.7
2023-05-14T03:49:00.962Z,7508.2
2023-05-14T03:50:01.769Z,7791.0
2023-05-14T03:51:00.920Z,8073.8
2023-05-14T03:52:00.954Z,8380.9
2023-05-14T03:53:00.907Z,8688.1
2023-05-14T03:54:00.912Z,8995.2
2023-05-14T03:55:01.128Z,9327.5
2023-05-14T03:56:00.911Z,9659.9
2023-05-14T03:57:00.970Z,10029.5
2023-05-14T03:58:00.911Z,10399.1
2023-05-14T03:59:00.909Z,10768.7
2023-05-14T04:01:00.915Z,11610.0
2023-05-14T04:02:00.946Z,12087.2
2023-05-14T04:03:00.938Z,12564.4
2023-05-14T04:04:01.004Z,13041.6
2023-05-14T04:05:01.133Z,13588.2
2023-05-14T04:06:00.918Z,14134.8
2023-05-14T04:07:01.216Z,14773.3
2023-05-14T04:08:00.909Z,15411.7
2023-05-14T04:09:00.911Z,16050.2
2023-05-14T04:10:15.970Z,16800.3
2023-05-14T04:11:01.123Z,17550.3
2023-05-14T04:12:00.914Z,18227.1
2023-05-14T04:13:00.966Z,19081.1
2023-05-14T04:43:00.617Z,50366.0
2023-05-14T04:44:00.517Z,50732.6
2023-05-14T04:47:00.503Z,52217.0
2023-05-14T04:48:00.645Z,52693.4
2023-05-14T04:49:00.527Z,53074.6
2023-05-14T04:52:00.510Z,54248.6
2023-05-14T04:53:00.543Z,54604.9
2023-05-14T04:54:00.556Z,54913.7
2023-05-14T04:57:00.506Z,56684.1
2023-05-14T04:58:00.556Z,57141.8
2023-05-14T05:38:01.848Z,65493.5
2023-05-14T05:39:01.092Z,65452.1
2023-05-14T05:41:01.015Z,65068.3
2023-05-14T05:42:00.995Z,64876.5
2023-05-14T05:43:01.265Z,64669.9
2023-05-14T05:44:01.046Z,64463.4
2023-05-14T05:46:01.028Z,63984.2
2023-05-14T05:47:01.095Z,63744.6
2023-05-14T05:48:01.232Z,63599.9
2023-05-14T05:49:01.033Z,63455.1
2023-05-14T05:53:01.338Z,63496.6
2023-05-14T05:54:01.052Z,63538.1
2023-05-14T05:56:01.031Z,63921.8
2023-05-14T05:57:01.007Z,64113.7
2023-05-14T05:58:02.014Z,64320.2
2023-05-14T05:59:01.039Z,64526.7
2023-05-14T06:01:01.001Z,65005.9
2023-05-14T06:02:01.091Z,65245.5
2023-05-14T06:03:06.862Z,65390.3
2023-05-14T06:04:01.082Z,65535.0
2023-05-14T06:15:02.904Z,65535.0
2023-05-14T07:30:01.170Z,65535.0
2023-05-14T08:00:01.193Z,65535.0
2023-05-14T08:15:01.309Z,65535.0
2023-05-14T08:45:01.210Z,65535.0
2023-05-14T09:15:01.215Z,65535.0
2023-05-14T09:50:01.561Z,65535.0
2023-05-14T10:30:01.315Z,65535.0
2023-05-14T11:45:01.532Z,65535.0
2023-05-14T12:30:21.598Z,65535.0
2023-05-14T13:15:01.908Z,65535.0
2023-05-14T16:47:00.855Z,65265.7
2023-05-14T16:48:00.891Z,64997.7
2023-05-14T16:49:00.844Z,64729.8
2023-05-14T16:52:00.851Z,63587.9
2023-05-14T16:53:00.948Z,63013.1
2023-05-14T16:54:00.868Z,62438.4
2023-05-14T16:57:00.840Z,60580.2
2023-05-14T16:58:00.863Z,59909.6
2023-05-14T16:59:00.839Z,59239.0
2023-05-14T17:02:01.092Z,57379.5
2023-05-14T17:03:00.891Z,56904.9
2023-05-14T17:04:00.850Z,56430.2
2023-05-14T17:07:00.836Z,55239.5
2023-05-14T17:08:00.863Z,54976.7
2023-05-14T17:09:00.846Z,54713.9
2023-05-14T17:12:00.835Z,54034.2
2023-05-14T17:13:00.866Z,53844.8
2023-05-14T17:14:00.863Z,53655.4
2023-05-14T17:17:00.845Z,53374.4
2023-05-14T17:18:00.951Z,53349.9
2023-05-14T17:19:00.863Z,53325.5
2023-05-14T17:22:00.841Z,53418.9
2023-05-14T17:23:00.889Z,53392.5
2023-05-14T17:24:00.846Z,53366.2
2023-05-14T17:27:00.973Z,52977.2
2023-05-14T17:28:00.953Z,52641.6
2023-05-14T17:29:00.908Z,52306.0
2023-05-14T17:32:00.878Z,50770.5
2023-05-14T17:33:01.077Z,50054.0
2023-05-14T17:34:00.938Z,49337.5
2023-05-14T17:37:00.859Z,46828.9
2023-05-14T17:38:00.878Z,45942.1
2023-05-14T17:39:00.851Z,45055.3
2023-05-14T17:42:00.847Z,42490.7
2023-05-14T17:43:00.870Z,41695.1
2023-05-14T17:44:00.857Z,40899.5
2023-05-14T17:47:00.990Z,38711.1
2023-05-14T17:48:00.908Z,38116.3
2023-05-14T17:49:00.845Z,37521.6
2023-05-14T17:52:00.865Z,35848.5
2023-05-14T17:53:00.885Z,35352.9
2023-05-14T17:54:00.954Z,34857.3
2023-05-14T17:57:00.871Z,33451.8
2023-05-14T17:58:00.898Z,33010.2
2023-05-14T17:59:00.865Z,32568.6
2023-05-14T18:00:03.649Z,32127.0
2023-05-14T18:02:00.866Z,31173.3
2023-05-14T18:03:00.938Z,30613.8
2023-05-14T18:04:00.919Z,30054.3
2023-05-14T18:07:00.882Z,28416.1
2023-05-14T18:08:00.925Z,27856.0
2023-05-14T18:09:00.875Z,27295.9
2023-05-14T18:10:02.531Z,26735.9
2023-05-14T18:11:00.975Z,26174.6
2023-05-14T18:12:00.893Z,25613.3
2023-05-14T18:13:00.910Z,25083.1
2023-05-14T18:14:00.887Z,24552.8
2023-05-14T18:16:01.978Z,23551.5
2023-05-14T18:17:01.015Z,23080.5
2023-05-14T18:18:00.977Z,22637.1
2023-05-14T18:19:00.994Z,22193.7
2023-05-14T18:22:00.905Z,20845.3
2023-05-14T18:23:01.123Z,20392.7
2023-05-14T18:24:00.885Z,19940.2
2023-05-14T18:27:00.884Z,18534.2
2023-05-14T18:28:00.897Z,18044.7
2023-05-14T18:29:00.908Z,17555.1
2023-05-14T18:32:00.878Z,16036.5
2023-05-14T18:33:00.959Z,15577.3
2023-05-14T19:00:03.919Z,5500.0
2023-05-14T19:02:00.970Z,5094.7
2023-05-14T19:03:00.968Z,4902.8
2023-05-14T19:04:02.543Z,4787.6
2023-05-14T19:05:01.172Z,4710.8
2023-05-14T19:06:00.911Z,4572.9
2023-05-14T19:07:00.913Z,4469.4
2023-05-14T19:08:00.946Z,4333.1
2023-05-14T19:09:00.911Z,4224.1
2023-05-14T19:12:00.907Z,3892.2
2023-05-14T19:13:00.914Z,3783.9
